createdAt,value
2023-03-05T00:00:39.280Z,25.90
2023-03-05T00:01:39.253Z,25.00
2023-03-05T00:02:39.309Z,23.70
2023-03-05T00:03:39.283Z,23.40
2023-03-05T00:04:39.220Z,26.60
2023-03-05T00:05:39.235Z,23.90
2023-03-05T00:06:39.188Z,26.30
2023-03-05T00:07:39.224Z,24.70
2023-03-05T00:08:39.182Z,24.50
2023-03-05T00:09:39.192Z,24.90
2023-03-05T00:10:39.173Z,23.90
2023-03-05T00:11:39.144Z,23.90
2023-03-05T00:12:39.144Z,23.80
2023-03-05T00:13:39.133Z,24.50
2023-03-05T00:14:39.083Z,23.00
2023-03-05T00:15:39.126Z,23.30
2023-03-05T00:16:39.079Z,23.00
2023-03-05T00:17:39.050Z,23.90
2023-03-05T00:18:39.047Z,24.20
2023-03-05T00:19:39.023Z,23.40
2023-03-05T00:20:39.024Z,26.20
2023-03-05T00:21:39.019Z,23.30
2023-03-05T00:22:38.994Z,24.90
2023-03-05T00:23:38.971Z,24.90
2023-03-05T00:24:38.973Z,25.70
2023-03-05T00:25:38.952Z,23.70
2023-03-05T00:26:38.981Z,25.00
2023-03-05T00:27:38.926Z,23.30
2023-03-05T00:28:38.910Z,24.30
2023-03-05T00:29:38.893Z,25.80
2023-03-05T00:30:38.877Z,24.60
2023-03-05T00:31:38.988Z,24.70
2023-03-05T00:32:38.901Z,27.00
2023-03-05T00:33:38.844Z,25.80
2023-03-05T00:34:38.827Z,25.40
2023-03-05T00:35:38.889Z,26.30
2023-03-05T00:36:38.817Z,25.30
2023-03-05T00:37:38.794Z,24.80
2023-03-05T00:38:38.780Z,24.90
2023-03-05T00:39:38.767Z,27.70
2023-03-05T00:40:38.854Z,26.40
2023-03-05T00:41:38.784Z,26.60
2023-03-05T00:42:38.830Z,27.30
2023-03-05T00:43:38.722Z,26.70
2023-03-05T00:44:38.714Z,26.60
2023-03-05T00:45:38.699Z,24.00
2023-03-05T00:46:38.758Z,25.30
2023-03-05T00:47:38.671Z,27.40
2023-03-05T00:48:38.652Z,24.70
2023-03-05T00:49:38.644Z,26.40
2023-03-05T00:50:38.639Z,24.50
2023-03-05T00:51:38.642Z,26.30
2023-03-05T00:52:38.607Z,26.80
2023-03-05T00:53:38.595Z,27.10
2023-03-05T00:54:38.579Z,26.40
2023-03-05T00:55:38.568Z,29.40
2023-03-05T00:56:38.586Z,28.20
2023-03-05T00:57:38.553Z,27.20
2023-03-05T00:58:38.543Z,30.00
2023-03-05T00:59:38.513Z,26.70
2023-03-05T01:00:38.513Z,26.10
2023-03-05T01:01:38.532Z,26.70
2023-03-05T01:02:38.474Z,24.70
2023-03-05T01:03:38.458Z,26.90
2023-03-05T01:04:38.440Z,28.70
2023-03-05T01:05:38.502Z,25.80
2023-03-05T01:06:38.426Z,25.50
2023-03-05T01:07:38.406Z,27.00
2023-03-05T01:08:38.386Z,23.90
2023-03-05T01:09:38.392Z,27.10
2023-03-05T01:10:38.376Z,25.70
2023-03-05T01:11:38.371Z,27.60
2023-03-05T01:12:38.354Z,23.50
2023-03-05T01:13:38.333Z,25.30
2023-03-05T01:14:38.307Z,28.70
2023-03-05T01:15:38.310Z,27.10
2023-03-05T01:16:38.302Z,25.80
2023-03-05T01:17:38.267Z,25.40
2023-03-05T01:18:38.254Z,26.70
2023-03-05T01:19:38.241Z,26.50
2023-03-05T01:20:38.221Z,25.50
2023-03-05T01:21:38.224Z,25.70
2023-03-05T01:22:38.209Z,25.80
2023-03-05T01:23:38.194Z,26.30
2023-03-05T01:24:38.176Z,27.30
2023-03-05T01:25:38.158Z,25.90
2023-03-05T01:26:38.173Z,27.30
2023-03-05T01:27:38.134Z,27.50
2023-03-05T01:28:38.251Z,25.90
2023-03-05T01:29:38.117Z,27.10
2023-03-05T01:30:38.092Z,24.80
2023-03-05T01:31:38.172Z,27.10
2023-03-05T01:32:38.184Z,27.50
2023-03-05T01:33:38.049Z,28.70
2023-03-05T01:34:38.043Z,28.50
2023-03-05T01:35:38.088Z,28.80
2023-03-05T01:36:38.019Z,28.10
2023-03-05T01:37:38.026Z,28.80
2023-03-05T01:38:37.997Z,29.30
2023-03-05T01:39:38.002Z,28.00
2023-03-05T01:40:37.975Z,27.70
2023-03-05T01:41:37.958Z,28.00
2023-03-05T01:42:37.973Z,30.50
2023-03-05T01:43:37.932Z,28.10
2023-03-05T01:44:37.939Z,28.60
2023-03-05T01:45:37.999Z,31.60
2023-03-05T01:46:37.908Z,29.20
2023-03-05T01:47:37.890Z,27.90
2023-03-05T01:48:37.866Z,27.10
2023-03-05T01:49:37.858Z,27.90
2023-03-05T01:50:37.839Z,27.80
2023-03-05T01:51:37.830Z,24.80
2023-03-05T01:52:37.836Z,27.20
2023-03-05T01:53:37.799Z,29.80
2023-03-05T01:54:37.786Z,25.60
2023-03-05T01:55:37.773Z,25.50
2023-03-05T01:56:37.769Z,29.80
2023-03-05T01:57:37.771Z,22.90
2023-03-05T01:58:37.739Z,23.00
2023-03-05T01:59:37.730Z,21.10
2023-03-05T02:00:37.747Z,19.50
2023-03-05T02:01:37.705Z,18.70
2023-03-05T02:02:37.705Z,21.50
2023-03-05T02:03:37.722Z,20.30
2023-03-05T02:04:37.659Z,18.80
2023-03-05T02:05:37.642Z,20.60
2023-03-05T02:06:37.634Z,19.90
2023-03-05T02:07:37.635Z,18.60
2023-03-05T02:08:37.605Z,17.70
2023-03-05T02:09:37.593Z,17.40
2023-03-05T02:10:37.580Z,16.70
2023-03-05T02:11:37.568Z,13.30
2023-03-05T02:12:37.575Z,14.70
2023-03-05T02:13:37.541Z,12.40
2023-03-05T02:14:37.560Z,11.90
2023-03-05T02:15:37.517Z,11.60
2023-03-05T02:16:37.602Z,14.80
2023-03-05T02:17:37.512Z,11.90
2023-03-05T02:18:37.488Z,11.50
2023-03-05T02:19:37.468Z,12.20
2023-03-05T02:20:37.460Z,11.70
2023-03-05T02:21:37.451Z,13.00
2023-03-05T02:22:37.455Z,12.70
2023-03-05T02:23:37.425Z,12.70
2023-03-05T02:24:37.406Z,11.60
2023-03-05T02:25:37.396Z,13.00
2023-03-05T02:26:37.387Z,13.60
2023-03-05T02:27:37.385Z,11.70
2023-03-05T02:28:37.356Z,12.60
2023-03-05T02:29:37.342Z,12.50
2023-03-05T02:30:37.336Z,11.00
2023-03-05T02:31:37.353Z,14.70
2023-03-05T02:32:37.411Z,10.60
2023-03-05T02:33:37.295Z,11.90
2023-03-05T02:34:37.280Z,9.00
2023-03-05T02:35:37.294Z,10.50
2023-03-05T02:36:37.255Z,9.20
2023-03-05T02:37:37.252Z,10.60
2023-03-05T02:38:37.228Z,11.30
2023-03-05T02:39:37.216Z,9.70
2023-03-05T02:40:37.225Z,9.70
2023-03-05T02:41:37.192Z,12.20
2023-03-05T02:42:37.201Z,10.30
2023-03-05T02:43:37.166Z,12.70
2023-03-05T02:44:37.198Z,11.60
2023-03-05T02:45:37.194Z,13.40
2023-03-05T02:46:37.143Z,10.80
2023-03-05T02:47:37.132Z,12.30
2023-03-05T02:48:37.133Z,10.30
2023-03-05T02:49:37.095Z,11.40
2023-03-05T02:50:37.079Z,10.90
2023-03-05T02:51:37.063Z,11.90
2023-03-05T02:52:37.074Z,10.20
2023-03-05T02:53:37.052Z,10.90
2023-03-05T02:54:37.030Z,10.10
2023-03-05T02:55:37.013Z,8.70
2023-03-05T02:56:37.000Z,9.90
2023-03-05T02:57:37.007Z,10.50
2023-03-05T02:58:36.980Z,8.30
2023-03-05T02:59:37.020Z,8.50
2023-03-05T03:00:36.958Z,10.50
2023-03-05T03:01:37.013Z,8.80
2023-03-05T03:02:36.942Z,8.90
2023-03-05T03:03:36.911Z,8.20
2023-03-05T03:04:36.924Z,8.20
2023-03-05T03:05:36.902Z,10.20
2023-03-05T03:06:36.882Z,8.70
2023-03-05T03:07:36.874Z,9.40
2023-03-05T03:08:36.852Z,9.00
2023-03-05T03:09:36.835Z,10.50
2023-03-05T03:10:36.827Z,9.30
2023-03-05T03:11:36.811Z,10.50
2023-03-05T03:12:36.822Z,7.40
2023-03-05T03:13:36.782Z,8.00
2023-03-05T03:14:36.778Z,7.50
2023-03-05T03:15:36.753Z,7.80
2023-03-05T03:16:36.763Z,9.30
2023-03-05T03:17:36.738Z,6.40
2023-03-05T03:18:36.733Z,8.60
2023-03-05T03:19:36.710Z,8.20
2023-03-05T03:20:36.713Z,7.00
2023-03-05T03:21:36.699Z,9.20
2023-03-05T03:22:36.676Z,6.10
2023-03-05T03:23:36.676Z,6.80
2023-03-05T03:24:36.645Z,6.70
2023-03-05T03:25:36.632Z,6.40
2023-03-05T03:26:36.625Z,7.20
2023-03-05T03:27:36.612Z,6.50
2023-03-05T03:28:36.618Z,6.00
2023-03-05T03:29:36.589Z,6.00
2023-03-05T03:30:36.610Z,5.10
2023-03-05T03:31:36.557Z,6.60
2023-03-05T03:32:36.594Z,4.70
2023-03-05T03:33:36.544Z,5.20
2023-03-05T03:34:36.526Z,6.70
2023-03-05T03:35:36.521Z,4.70
2023-03-05T03:36:36.518Z,6.90
2023-03-05T03:37:36.490Z,5.60
2023-03-05T03:38:36.497Z,6.00
2023-03-05T03:39:36.478Z,8.80
2023-03-05T03:40:36.454Z,5.90
2023-03-05T03:41:36.436Z,6.40
2023-03-05T03:42:36.426Z,5.30
2023-03-05T03:43:36.432Z,7.90
2023-03-05T03:44:36.407Z,6.80
2023-03-05T03:45:36.389Z,5.80
2023-03-05T03:46:36.456Z,3.40
2023-03-05T03:47:36.360Z,7.10
2023-03-05T03:48:36.368Z,5.50
2023-03-05T03:49:36.338Z,6.60
2023-03-05T03:50:36.341Z,5.60
2023-03-05T03:51:36.308Z,6.60
2023-03-05T03:52:36.338Z,6.00
2023-03-05T03:53:36.317Z,5.50
2023-03-05T03:54:36.276Z,6.10
2023-03-05T03:55:36.254Z,6.20
2023-03-05T03:56:36.250Z,5.10
2023-03-05T03:57:36.239Z,6.30
2023-03-05T03:58:36.236Z,4.20
2023-03-05T03:59:36.208Z,8.00
2023-03-05T04:00:36.207Z,5.30
2023-03-05T04:01:36.188Z,5.10
2023-03-05T04:02:36.208Z,5.50
2023-03-05T04:03:36.174Z,5.50
2023-03-05T04:04:36.180Z,6.40
2023-03-05T04:05:36.162Z,5.10
2023-03-05T04:06:36.122Z,7.50
2023-03-05T04:07:36.125Z,6.40
2023-03-05T04:08:36.132Z,5.60
2023-03-05T04:09:36.090Z,5.90
2023-03-05T04:10:36.077Z,6.40
2023-03-05T04:11:36.064Z,7.50
2023-03-05T04:12:36.047Z,4.60
2023-03-05T04:13:36.040Z,6.30
2023-03-05T04:14:36.040Z,7.10
2023-03-05T04:15:36.008Z,7.30
2023-03-05T04:16:35.990Z,6.50
2023-03-05T04:17:35.978Z,6.60
2023-03-05T04:18:36.029Z,3.90
2023-03-05T04:19:35.978Z,6.20
2023-03-05T04:20:35.952Z,5.30
2023-03-05T04:21:35.934Z,5.90
2023-03-05T04:22:35.920Z,6.10
2023-03-05T04:23:35.906Z,4.80
2023-03-05T04:24:35.934Z,4.40
2023-03-05T04:25:35.877Z,6.60
2023-03-05T04:26:35.868Z,4.20
2023-03-05T04:27:35.856Z,4.00
2023-03-05T04:28:35.838Z,5.20
2023-03-05T04:29:35.845Z,6.40
2023-03-05T04:30:35.816Z,4.00
2023-03-05T04:31:35.897Z,4.20
2023-03-05T04:32:35.878Z,5.50
2023-03-05T04:33:35.769Z,4.30
2023-03-05T04:34:35.774Z,2.60
2023-03-05T04:35:35.787Z,6.20
2023-03-05T04:36:35.749Z,5.50
2023-03-05T04:37:35.723Z,4.60
2023-03-05T04:38:35.707Z,4.10
2023-03-05T04:39:35.707Z,3.70
2023-03-05T04:40:35.704Z,3.40
2023-03-05T04:41:35.671Z,5.00
2023-03-05T04:42:35.654Z,4.80
2023-03-05T04:43:35.643Z,2.90
2023-03-05T04:44:35.649Z,4.40
2023-03-05T04:45:35.623Z,4.60
2023-03-05T04:46:35.733Z,4.10
2023-03-05T04:47:35.592Z,5.00
2023-03-05T04:48:35.583Z,3.90
2023-03-05T04:49:35.578Z,5.20
2023-03-05T04:50:35.562Z,4.00
2023-03-05T04:51:35.543Z,4.60
2023-03-05T04:52:35.528Z,4.80
2023-03-05T04:53:35.510Z,3.70
2023-03-05T04:54:35.514Z,5.70
2023-03-05T04:55:35.484Z,5.50
2023-03-05T04:56:35.504Z,4.70
2023-03-05T04:57:35.460Z,3.90
2023-03-05T04:58:35.449Z,3.60
2023-03-05T04:59:35.451Z,6.40
2023-03-05T05:00:35.422Z,4.50
2023-03-05T05:01:35.457Z,4.60
2023-03-05T05:02:35.491Z,4.90
2023-03-05T05:03:35.395Z,4.00
2023-03-05T05:04:35.389Z,4.70
2023-03-05T05:05:35.360Z,4.20
2023-03-05T05:06:35.353Z,5.10
2023-03-05T05:07:35.342Z,3.70
2023-03-05T05:08:35.323Z,4.50
2023-03-05T05:09:35.328Z,4.90
2023-03-05T05:10:35.302Z,2.60
2023-03-05T05:11:35.286Z,4.50
2023-03-05T05:12:35.294Z,3.50
2023-03-05T05:13:35.283Z,4.30
2023-03-05T05:14:35.297Z,5.40
2023-03-05T05:15:35.232Z,3.90
2023-03-05T05:16:35.309Z,3.10
2023-03-05T05:17:35.208Z,3.60
2023-03-05T05:18:35.196Z,5.20
2023-03-05T05:19:35.230Z,3.20
2023-03-05T05:20:35.186Z,3.30
2023-03-05T05:21:35.159Z,3.70
2023-03-05T05:22:35.154Z,4.70
2023-03-05T05:23:35.136Z,4.30
2023-03-05T05:24:35.137Z,3.70
2023-03-05T05:25:35.124Z,5.60
2023-03-05T05:26:35.098Z,4.60
2023-03-05T05:27:35.081Z,4.00
2023-03-05T05:28:35.085Z,3.90
2023-03-05T05:29:35.053Z,3.10
2023-03-05T05:30:35.051Z,3.00
2023-03-05T05:31:35.110Z,4.10
2023-03-05T05:32:35.141Z,4.80
2023-03-05T05:33:35.000Z,4.30
2023-03-05T05:34:34.983Z,4.60
2023-03-05T05:35:35.014Z,3.70
2023-03-05T05:36:34.962Z,5.20
2023-03-05T05:37:34.966Z,3.80
2023-03-05T05:38:34.952Z,5.30
2023-03-05T05:39:34.926Z,4.30
2023-03-05T05:40:34.932Z,5.30
2023-03-05T05:41:34.909Z,4.70
2023-03-05T05:42:34.893Z,5.30
2023-03-05T05:43:34.884Z,3.00
2023-03-05T05:44:34.948Z,4.80
2023-03-05T05:45:35.033Z,6.10
2023-03-05T05:46:34.917Z,5.00
2023-03-05T05:47:34.849Z,3.30
2023-03-05T05:48:34.827Z,3.40
2023-03-05T05:49:34.808Z,3.70
2023-03-05T05:50:34.827Z,2.80
2023-03-05T05:51:34.780Z,4.30
2023-03-05T05:52:34.774Z,4.50
2023-03-05T05:53:34.750Z,4.10
2023-03-05T05:54:34.739Z,4.80
2023-03-05T05:55:34.737Z,4.30
2023-03-05T05:56:34.718Z,5.00
2023-03-05T05:57:34.701Z,3.30
2023-03-05T05:58:34.686Z,3.80
2023-03-05T05:59:34.677Z,4.80
2023-03-05T06:00:34.696Z,4.70
2023-03-05T06:01:34.668Z,6.20
2023-03-05T06:02:34.633Z,4.70
2023-03-05T06:03:34.635Z,4.20
2023-03-05T06:04:34.610Z,3.40
2023-03-05T06:05:34.618Z,5.00
2023-03-05T06:06:34.615Z,3.60
2023-03-05T06:07:34.568Z,4.20
2023-03-05T06:08:34.558Z,4.30
2023-03-05T06:09:34.554Z,4.20
2023-03-05T06:10:34.549Z,4.70
2023-03-05T06:11:34.541Z,4.70
2023-03-05T06:12:34.520Z,4.80
2023-03-05T06:13:34.495Z,5.50
2023-03-05T06:14:34.487Z,3.70
2023-03-05T06:15:34.486Z,3.50
2023-03-05T06:16:34.538Z,4.00
2023-03-05T06:17:34.443Z,4.90
2023-03-05T06:18:34.435Z,5.50
2023-03-05T06:19:34.414Z,8.00
2023-03-05T06:20:34.419Z,6.30
2023-03-05T06:21:34.393Z,5.10
2023-03-05T06:22:34.386Z,4.10
2023-03-05T06:23:34.365Z,7.10
2023-03-05T06:24:34.350Z,3.30
2023-03-05T06:25:34.362Z,5.10
2023-03-05T06:26:34.328Z,4.80
2023-03-05T06:27:34.318Z,5.30
2023-03-05T06:28:34.305Z,30.70
2023-03-05T06:29:34.289Z,17.00
2023-03-05T06:30:34.304Z,38.70
2023-03-05T06:31:36.784Z,21.60
2023-03-05T06:32:34.335Z,13.70
2023-03-05T06:33:34.241Z,12.30
2023-03-05T06:34:34.223Z,6.00
2023-03-05T06:35:34.246Z,6.90
2023-03-05T06:36:34.231Z,5.90
2023-03-05T06:37:34.196Z,4.90
2023-03-05T06:38:34.179Z,5.90
2023-03-05T06:39:34.159Z,5.40
2023-03-05T06:40:34.149Z,5.30
2023-03-05T06:41:34.151Z,3.90
2023-03-05T06:42:34.129Z,4.30
2023-03-05T06:43:34.109Z,5.00
2023-03-05T06:44:34.091Z,4.80
2023-03-05T06:45:34.084Z,6.20
2023-03-05T06:46:34.085Z,4.60
2023-03-05T06:47:34.072Z,4.90
2023-03-05T06:48:34.090Z,3.50
2023-03-05T06:49:34.039Z,6.10
2023-03-05T06:50:34.022Z,4.70
2023-03-05T06:51:34.017Z,3.40
2023-03-05T06:52:33.998Z,3.90
2023-03-05T06:53:33.980Z,4.00
2023-03-05T06:54:33.975Z,3.90
2023-03-05T06:55:33.952Z,4.40
2023-03-05T06:56:33.957Z,2.90
2023-03-05T06:57:33.926Z,4.30
2023-03-05T06:58:33.910Z,3.40
2023-03-05T06:59:33.905Z,3.60
2023-03-05T07:00:33.884Z,4.10
2023-03-05T07:01:34.026Z,4.70
2023-03-05T07:02:33.919Z,5.00
2023-03-05T07:03:33.849Z,3.00
2023-03-05T07:04:33.871Z,5.00
2023-03-05T07:05:34.308Z,6.00
2023-03-05T07:06:33.824Z,4.60
2023-03-05T07:07:33.801Z,5.50
2023-03-05T07:08:33.795Z,3.40
2023-03-05T07:09:33.778Z,6.60
2023-03-05T07:10:33.776Z,5.60
2023-03-05T07:11:33.765Z,5.40
2023-03-05T07:12:33.733Z,5.40
2023-03-05T07:13:33.724Z,5.60
2023-03-05T07:14:33.714Z,5.00
2023-03-05T07:15:33.709Z,4.40
2023-03-05T07:16:33.708Z,5.10
2023-03-05T07:17:33.681Z,4.70
2023-03-05T07:18:33.669Z,4.90
2023-03-05T07:19:33.647Z,4.60
2023-03-05T07:20:33.659Z,3.80
2023-03-05T07:21:33.646Z,4.30
2023-03-05T07:22:33.606Z,3.60
2023-03-05T07:23:33.601Z,4.20
2023-03-05T07:24:33.588Z,4.20
2023-03-05T07:25:33.566Z,2.60
2023-03-05T07:26:33.642Z,3.00
2023-03-05T07:27:33.549Z,4.10
2023-03-05T07:28:33.539Z,4.60
2023-03-05T07:29:33.522Z,4.90
2023-03-05T07:30:33.667Z,5.10
2023-03-05T07:31:33.521Z,7.30
2023-03-05T07:32:33.560Z,5.80
2023-03-05T07:33:33.475Z,5.20
2023-03-05T07:34:33.456Z,6.50
2023-03-05T07:35:33.488Z,4.50
2023-03-05T07:36:33.469Z,4.10
2023-03-05T07:37:33.419Z,5.10
2023-03-05T07:38:33.407Z,6.40
2023-03-05T07:39:33.395Z,5.00
2023-03-05T07:40:33.381Z,6.10
2023-03-05T07:41:33.397Z,5.20
2023-03-05T07:42:33.402Z,4.30
2023-03-05T07:43:33.345Z,4.30
2023-03-05T07:44:33.335Z,3.40
2023-03-05T07:45:33.336Z,5.20
2023-03-05T07:46:33.389Z,5.70
2023-03-05T07:47:33.307Z,6.80
2023-03-05T07:48:33.279Z,7.90
2023-03-05T07:49:33.270Z,4.90
2023-03-05T07:50:33.254Z,5.20
2023-03-05T07:51:33.246Z,6.60
2023-03-05T07:52:33.265Z,4.30
2023-03-05T07:53:33.220Z,7.20
2023-03-05T07:54:33.207Z,6.20
2023-03-05T07:55:33.201Z,5.80
2023-03-05T07:56:33.180Z,4.80
2023-03-05T07:57:33.181Z,6.10
2023-03-05T07:58:33.150Z,5.80
2023-03-05T07:59:33.140Z,6.20
2023-03-05T08:00:33.131Z,6.30
2023-03-05T08:01:33.123Z,7.40
2023-03-05T08:02:33.147Z,6.00
2023-03-05T08:03:33.093Z,7.00
2023-03-05T08:04:33.124Z,5.90
2023-03-05T08:05:33.073Z,6.00
2023-03-05T08:06:33.051Z,6.50
2023-03-05T08:07:33.056Z,6.60
2023-03-05T08:08:33.050Z,4.60
2023-03-05T08:09:33.013Z,5.20
2023-03-05T08:10:33.000Z,5.70
2023-03-05T08:11:33.010Z,3.00
2023-03-05T08:12:32.981Z,5.00
2023-03-05T08:13:33.000Z,4.30
2023-03-05T08:14:32.948Z,5.10
2023-03-05T08:15:33.002Z,6.40
2023-03-05T08:16:32.920Z,5.30
2023-03-05T08:17:32.931Z,3.90
2023-03-05T08:18:32.894Z,5.80
2023-03-05T08:19:32.885Z,4.40
2023-03-05T08:20:32.873Z,7.20
2023-03-05T08:21:32.856Z,4.80
2023-03-05T08:22:32.858Z,4.30
2023-03-05T08:23:32.833Z,6.60
2023-03-05T08:24:32.842Z,3.40
2023-03-05T08:25:32.815Z,4.10
2023-03-05T08:26:32.797Z,5.80
2023-03-05T08:27:32.802Z,5.80
2023-03-05T08:28:34.449Z,3.80
2023-03-05T08:29:32.757Z,5.80
2023-03-05T08:30:32.752Z,5.10
2023-03-05T08:31:32.864Z,5.60
2023-03-05T08:32:32.805Z,3.50
2023-03-05T08:33:35.200Z,3.50
2023-03-05T08:34:32.690Z,4.10
2023-03-05T08:35:32.739Z,5.70
2023-03-05T08:36:32.681Z,5.20
2023-03-05T08:37:32.665Z,8.50
2023-03-05T08:38:32.640Z,5.30
2023-03-05T08:39:32.628Z,6.30
2023-03-05T08:40:32.634Z,7.50
2023-03-05T08:41:32.607Z,4.10
2023-03-05T08:42:32.605Z,6.10
2023-03-05T08:43:32.591Z,5.20
2023-03-05T08:44:32.567Z,4.70
2023-03-05T08:45:32.559Z,5.60
2023-03-05T08:46:32.569Z,5.20
2023-03-05T08:47:32.549Z,6.40
2023-03-05T08:48:32.520Z,4.70
2023-03-05T08:49:32.508Z,5.40
2023-03-05T08:50:32.534Z,5.80
2023-03-05T08:51:32.487Z,5.00
2023-03-05T08:52:32.480Z,5.00
2023-03-05T08:53:32.451Z,5.90
2023-03-05T08:54:32.453Z,5.90
2023-03-05T08:55:32.443Z,5.80
2023-03-05T08:56:32.435Z,8.10
2023-03-05T08:57:32.419Z,8.20
2023-03-05T08:58:32.387Z,10.20
2023-03-05T08:59:32.376Z,7.10
2023-03-05T09:00:32.376Z,8.20
2023-03-05T09:01:32.411Z,9.90
2023-03-05T09:02:32.422Z,9.70
2023-03-05T09:03:32.331Z,8.80
2023-03-05T09:04:32.315Z,8.20
2023-03-05T09:05:32.304Z,11.20
2023-03-05T09:06:32.297Z,8.40
2023-03-05T09:07:32.292Z,10.10
2023-03-05T09:08:32.274Z,9.10
2023-03-05T09:09:32.258Z,10.40
2023-03-05T09:10:32.251Z,11.20
2023-03-05T09:11:32.233Z,10.30
2023-03-05T09:12:32.267Z,11.50
2023-03-05T09:13:32.220Z,10.70
2023-03-05T09:14:32.192Z,10.00
2023-03-05T09:15:32.181Z,11.20
2023-03-05T09:16:32.196Z,10.40
2023-03-05T09:17:32.173Z,10.60
2023-03-05T09:18:32.143Z,11.30
2023-03-05T09:19:32.124Z,9.70
2023-03-05T09:20:32.112Z,10.80
2023-03-05T09:21:32.101Z,10.90
2023-03-05T09:22:32.098Z,11.00
2023-03-05T09:23:32.074Z,11.50
2023-03-05T09:24:32.060Z,12.20
2023-03-05T09:25:32.058Z,11.30
2023-03-05T09:26:32.033Z,11.10
2023-03-05T09:27:32.037Z,12.00
2023-03-05T09:28:32.028Z,12.50
2023-03-05T09:29:32.002Z,10.40
2023-03-05T09:30:31.985Z,12.10
2023-03-05T09:31:31.999Z,11.00
2023-03-05T09:32:32.141Z,10.70
2023-03-05T09:33:31.950Z,10.80
2023-03-05T09:34:31.928Z,9.00
2023-03-05T09:35:31.947Z,13.00
2023-03-05T09:36:31.916Z,10.10
2023-03-05T09:37:31.894Z,10.30
2023-03-05T09:38:31.895Z,13.30
2023-03-05T09:39:31.866Z,10.00
2023-03-05T09:40:31.854Z,9.50
2023-03-05T09:41:31.844Z,11.70
2023-03-05T09:42:31.825Z,11.10
2023-03-05T09:43:31.836Z,11.40
2023-03-05T09:44:31.824Z,10.70
2023-03-05T09:45:31.838Z,11.30
2023-03-05T09:46:31.777Z,10.60
2023-03-05T09:47:31.765Z,10.40
2023-03-05T09:48:31.759Z,9.10
2023-03-05T09:49:31.735Z,10.30
2023-03-05T09:50:31.738Z,9.60
2023-03-05T09:51:31.716Z,9.70
2023-03-05T09:52:31.699Z,10.50
2023-03-05T09:53:31.703Z,10.00
2023-03-05T09:54:31.672Z,10.30
2023-03-05T09:55:31.654Z,10.60
2023-03-05T09:56:31.651Z,10.20
2023-03-05T09:57:31.628Z,11.50
2023-03-05T09:58:31.628Z,11.90
2023-03-05T09:59:31.617Z,12.80
2023-03-05T10:00:31.615Z,10.80
2023-03-05T10:01:31.582Z,10.60
2023-03-05T10:02:31.581Z,11.00
2023-03-05T10:03:31.613Z,9.70
2023-03-05T10:04:31.539Z,11.50
2023-03-05T10:05:31.538Z,10.40
2023-03-05T10:06:31.534Z,11.20
2023-03-05T10:07:31.526Z,10.60
2023-03-05T10:08:31.505Z,10.50
2023-03-05T10:09:31.469Z,10.90
2023-03-05T10:10:31.470Z,10.80
2023-03-05T10:11:31.446Z,11.20
2023-03-05T10:12:31.434Z,11.60
2023-03-05T10:13:31.442Z,12.70
2023-03-05T10:14:31.411Z,11.70
2023-03-05T10:15:32.103Z,12.50
2023-03-05T10:16:31.411Z,10.90
2023-03-05T10:17:31.370Z,10.30
2023-03-05T10:18:31.369Z,11.50
2023-03-05T10:19:31.338Z,11.50
2023-03-05T10:20:31.338Z,14.10
2023-03-05T10:21:31.313Z,13.50
2023-03-05T10:22:31.297Z,12.50
2023-03-05T10:23:31.305Z,10.50
2023-03-05T10:24:31.275Z,11.80
2023-03-05T10:25:31.264Z,9.60
2023-03-05T10:26:31.251Z,10.70
2023-03-05T10:27:31.305Z,13.00
2023-03-05T10:28:31.235Z,10.40
2023-03-05T10:29:31.209Z,11.30
2023-03-05T10:30:31.232Z,10.70
2023-03-05T10:31:31.194Z,11.30
2023-03-05T10:32:31.286Z,10.80
2023-03-05T10:33:33.506Z,10.80
2023-03-05T10:34:31.144Z,10.80
2023-03-05T10:35:31.198Z,10.30
2023-03-05T10:36:31.125Z,10.80
2023-03-05T10:37:31.102Z,9.60
2023-03-05T10:38:31.094Z,10.10
2023-03-05T10:39:31.096Z,9.70
2023-03-05T10:40:31.061Z,9.50
2023-03-05T10:41:31.050Z,10.40
2023-03-05T10:42:31.409Z,10.20
2023-03-05T10:43:31.031Z,11.40
2023-03-05T10:44:31.041Z,10.10
2023-03-05T10:45:31.038Z,9.00
2023-03-05T10:46:30.990Z,10.30
2023-03-05T10:47:30.968Z,9.00
2023-03-05T10:48:30.982Z,9.10
2023-03-05T10:49:30.963Z,9.30
2023-03-05T10:50:30.937Z,9.00
2023-03-05T10:51:30.920Z,9.30
2023-03-05T10:52:30.915Z,9.00
2023-03-05T10:53:30.893Z,9.10
2023-03-05T10:54:30.904Z,7.80
2023-03-05T10:55:30.871Z,9.80
2023-03-05T10:56:30.857Z,8.40
2023-03-05T10:57:30.848Z,8.60
2023-03-05T10:58:30.834Z,8.10
2023-03-05T10:59:30.834Z,8.50
2023-03-05T11:00:30.813Z,8.90
2023-03-05T11:01:30.838Z,8.10
2023-03-05T11:02:30.818Z,8.30
2023-03-05T11:03:30.766Z,8.80
2023-03-05T11:04:30.790Z,7.90
2023-03-05T11:05:30.745Z,9.40
2023-03-05T11:06:30.731Z,8.60
2023-03-05T11:07:30.710Z,9.30
2023-03-05T11:08:30.704Z,8.20
2023-03-05T11:09:30.702Z,8.20
2023-03-05T11:10:30.670Z,7.90
2023-03-05T11:11:30.660Z,7.90
2023-03-05T11:12:30.655Z,8.70
2023-03-05T11:13:30.647Z,8.90
2023-03-05T11:14:30.638Z,9.10
2023-03-05T11:15:30.619Z,8.30
2023-03-05T11:16:30.606Z,8.60
2023-03-05T11:17:30.585Z,7.70
2023-03-05T11:18:30.566Z,8.90
2023-03-05T11:19:30.581Z,8.20
2023-03-05T11:20:30.587Z,8.60
2023-03-05T11:21:30.547Z,10.10
2023-03-05T11:22:30.525Z,8.00
2023-03-05T11:23:30.508Z,8.50
2023-03-05T11:24:30.509Z,6.90
2023-03-05T11:25:30.495Z,9.10
2023-03-05T11:26:30.483Z,7.40
2023-03-05T11:27:30.460Z,7.70
2023-03-05T11:28:33.624Z,8.00
2023-03-05T11:29:30.435Z,8.60
2023-03-05T11:30:30.461Z,8.30
2023-03-05T11:31:30.401Z,9.40
2023-03-05T11:32:30.465Z,10.00
2023-03-05T11:33:30.382Z,9.00
2023-03-05T11:34:30.367Z,8.30
2023-03-05T11:35:30.408Z,7.00
2023-03-05T11:36:30.368Z,8.60
2023-03-05T11:37:30.330Z,10.50
2023-03-05T11:38:30.313Z,8.90
2023-03-05T11:39:30.300Z,8.30
2023-03-05T11:40:30.309Z,9.80
2023-03-05T11:41:30.273Z,9.50
2023-03-05T11:42:30.259Z,8.80
2023-03-05T11:43:30.242Z,9.10
2023-03-05T11:44:30.238Z,8.70
2023-03-05T11:45:30.242Z,8.80
2023-03-05T11:46:30.301Z,8.90
2023-03-05T11:47:30.194Z,10.60
2023-03-05T11:48:30.183Z,11.70
2023-03-05T11:49:30.174Z,8.70
2023-03-05T11:50:30.175Z,9.20
2023-03-05T11:51:30.148Z,10.20
2023-03-05T11:52:30.162Z,8.70
2023-03-05T11:53:30.119Z,7.70
2023-03-05T11:54:30.120Z,10.40
2023-03-05T11:55:30.115Z,9.70
2023-03-05T11:56:30.086Z,8.80
2023-03-05T11:57:30.076Z,9.30
2023-03-05T11:58:30.075Z,7.70
2023-03-05T11:59:30.053Z,8.70
2023-03-05T12:00:30.066Z,10.70
2023-03-05T12:01:30.019Z,10.60
2023-03-05T12:02:30.044Z,10.40
2023-03-05T12:03:30.006Z,8.70
2023-03-05T12:04:29.980Z,9.90
2023-03-05T12:05:29.994Z,10.30
2023-03-05T12:06:29.967Z,10.60
2023-03-05T12:07:29.945Z,12.10
2023-03-05T12:08:29.957Z,10.20
2023-03-05T12:09:29.919Z,9.40
2023-03-05T12:10:29.921Z,9.60
2023-03-05T12:11:29.891Z,10.00
2023-03-05T12:12:29.885Z,9.90
2023-03-05T12:13:29.891Z,9.10
2023-03-05T12:14:29.861Z,9.60
2023-03-05T12:15:29.857Z,11.40
2023-03-05T12:16:29.889Z,10.10
2023-03-05T12:17:29.814Z,10.70
2023-03-05T12:18:29.808Z,10.90
2023-03-05T12:19:29.796Z,9.70
2023-03-05T12:20:29.836Z,10.30
2023-03-05T12:21:29.766Z,10.30
2023-03-05T12:22:29.754Z,10.30
2023-03-05T12:23:29.737Z,9.40
2023-03-05T12:24:29.747Z,9.90
2023-03-05T12:25:29.740Z,7.40
2023-03-05T12:26:29.702Z,9.20
2023-03-05T12:27:29.686Z,7.40
2023-03-05T12:28:29.680Z,8.10
2023-03-05T12:29:29.661Z,8.50
2023-03-05T12:30:29.644Z,10.00
2023-03-05T12:31:29.693Z,8.90
2023-03-05T12:32:29.810Z,9.80
2023-03-05T12:33:29.618Z,9.70
2023-03-05T12:34:29.596Z,9.20
2023-03-05T12:35:29.647Z,9.20
2023-03-05T12:36:29.589Z,10.40
2023-03-05T12:37:29.570Z,11.50
2023-03-05T12:38:29.559Z,10.10
2023-03-05T12:39:29.534Z,9.90
2023-03-05T12:40:29.561Z,8.60
2023-03-05T12:41:31.016Z,9.80
2023-03-05T12:42:29.495Z,7.30
2023-03-05T12:43:29.702Z,8.30
2023-03-05T12:44:29.471Z,8.90
2023-03-05T12:45:29.460Z,8.30
2023-03-05T12:46:29.574Z,8.50
2023-03-05T12:47:29.433Z,8.20
2023-03-05T12:48:29.463Z,8.20
2023-03-05T12:49:29.399Z,9.30
2023-03-05T12:50:29.454Z,8.40
2023-03-05T12:51:29.404Z,8.90
2023-03-05T12:52:29.374Z,7.30
2023-03-05T12:53:29.354Z,8.30
2023-03-05T12:54:29.340Z,7.30
2023-03-05T12:55:29.328Z,9.40
2023-03-05T12:56:29.348Z,6.90
2023-03-05T12:57:29.306Z,6.00
2023-03-05T12:58:29.286Z,6.30
2023-03-05T12:59:29.271Z,4.80
2023-03-05T13:00:29.275Z,5.20
2023-03-05T13:01:29.275Z,6.50
2023-03-05T13:02:29.241Z,7.60
2023-03-05T13:03:29.412Z,5.80
2023-03-05T13:04:29.213Z,7.10
2023-03-05T13:05:29.193Z,6.20
2023-03-05T13:06:29.198Z,6.70
2023-03-05T13:07:29.162Z,7.00
2023-03-05T13:08:29.154Z,8.80